createdAt,value
2018-11-21T00:01:08.158Z,47.80
2018-11-21T00:03:55.897Z,48.00
2018-11-21T00:12:32.386Z,50.63
2018-11-21T00:15:20.105Z,45.67
2018-11-21T00:18:07.877Z,48.40
2018-11-21T00:20:55.651Z,45.67
2018-11-21T00:23:43.408Z,46.13
2018-11-21T00:26:31.140Z,47.87
2018-11-21T00:29:18.900Z,46.37
2018-11-21T00:32:11.525Z,49.10
2018-11-21T00:34:59.300Z,46.90
2018-11-21T00:40:53.957Z,45.27
2018-11-21T00:43:41.689Z,43.13
2018-11-21T00:49:23.597Z,45.30
2018-11-21T00:52:11.515Z,41.87
2018-11-21T00:54:59.566Z,44.00
2018-11-21T00:57:47.286Z,44.73
2018-11-21T01:00:35.421Z,45.87
2018-11-21T01:03:23.151Z,44.63
2018-11-21T01:06:10.914Z,45.17
2018-11-21T01:08:58.691Z,50.07
2018-11-21T01:11:46.451Z,45.07
2018-11-21T01:14:34.181Z,47.47
2018-11-21T01:17:21.957Z,42.23
2018-11-21T01:20:09.689Z,46.90
2018-11-21T01:22:57.508Z,40.87
2018-11-21T01:25:45.242Z,41.73
2018-11-21T01:28:26.155Z,42.13
2018-11-21T01:31:06.728Z,42.07
2018-11-21T01:33:47.383Z,38.50
2018-11-21T01:36:28.165Z,40.83
2018-11-21T01:39:08.396Z,42.40
2018-11-21T01:41:48.780Z,43.10
2018-11-21T01:44:29.473Z,39.53
2018-11-21T01:47:10.124Z,42.10
2018-11-21T01:49:51.077Z,41.07
2018-11-21T01:52:32.091Z,43.63
2018-11-21T01:55:12.783Z,42.53
2018-11-21T01:57:53.680Z,44.10
2018-11-21T02:00:34.764Z,44.17
2018-11-21T02:03:15.804Z,44.47
2018-11-21T02:05:56.172Z,42.67
2018-11-21T02:08:36.460Z,42.30
2018-11-21T02:11:17.549Z,44.53
2018-11-21T02:13:58.628Z,44.83
2018-11-21T02:16:37.558Z,43.10
2018-11-21T02:19:25.374Z,41.60
2018-11-21T02:22:13.146Z,42.33
2018-11-21T02:25:00.871Z,46.57
2018-11-21T02:27:48.637Z,42.87
2018-11-21T02:30:36.374Z,46.43
2018-11-21T02:39:12.114Z,45.87
2018-11-21T02:41:59.911Z,44.17
2018-11-21T02:44:47.973Z,42.47
2018-11-21T02:47:35.699Z,44.27
2018-11-21T02:50:23.470Z,46.47
2018-11-21T02:53:11.201Z,43.87
2018-11-21T02:55:58.967Z,45.30
2018-11-21T02:58:46.694Z,48.67
2018-11-21T03:01:34.459Z,43.10
2018-11-21T03:04:22.196Z,49.70
2018-11-21T03:07:10.074Z,42.33
2018-11-21T03:13:05.581Z,44.97
2018-11-21T03:15:53.303Z,43.37
2018-11-21T03:18:41.110Z,46.80
2018-11-21T03:21:28.836Z,43.03
2018-11-21T03:24:16.607Z,43.03
2018-11-21T03:27:04.328Z,40.20
2018-11-21T03:29:52.086Z,42.20
2018-11-21T03:32:40.531Z,44.60
2018-11-21T03:35:28.290Z,39.70
2018-11-21T03:41:22.960Z,43.30
2018-11-21T03:44:10.736Z,43.10
2018-11-21T03:46:58.491Z,42.80
2018-11-21T03:49:46.223Z,47.07
2018-11-21T03:52:33.980Z,46.03
2018-11-21T03:55:21.709Z,45.97
2018-11-21T03:58:09.487Z,44.37
2018-11-21T04:00:57.208Z,45.50
2018-11-21T04:03:44.973Z,43.07
2018-11-21T04:06:32.712Z,44.73
2018-11-21T04:12:13.983Z,42.47
2018-11-21T04:15:01.781Z,45.90
2018-11-21T04:17:49.900Z,46.23
2018-11-21T04:23:44.550Z,44.50
2018-11-21T04:26:32.276Z,41.43
2018-11-21T04:32:14.541Z,40.90
2018-11-21T04:35:02.270Z,41.53
2018-11-21T04:37:50.332Z,41.10
2018-11-21T04:43:44.997Z,41.00
2018-11-21T04:46:32.724Z,43.23
2018-11-21T04:49:20.504Z,40.30
2018-11-21T04:52:08.240Z,40.87
2018-11-21T04:54:56.007Z,44.33
2018-11-21T04:57:43.738Z,43.63
2018-11-21T05:00:31.506Z,42.03
2018-11-21T05:03:19.931Z,41.37
2018-11-21T05:06:07.702Z,44.10
2018-11-21T05:12:03.495Z,42.40
2018-11-21T05:14:51.314Z,39.30
2018-11-21T05:17:39.157Z,41.67
2018-11-21T05:20:26.896Z,43.40
2018-11-21T05:23:14.663Z,45.40
2018-11-21T05:26:02.435Z,42.77
2018-11-21T05:31:43.856Z,41.93
2018-11-21T05:34:31.877Z,42.93
2018-11-21T05:37:19.643Z,42.63
2018-11-21T05:40:08.074Z,42.23
2018-11-21T05:48:44.301Z,43.10
2018-11-21T05:54:39.358Z,41.10
2018-11-21T05:57:27.186Z,43.77
2018-11-21T06:00:15.184Z,39.03
2018-11-21T06:03:03.098Z,42.23
2018-11-21T06:05:50.852Z,45.03
2018-11-21T06:08:38.583Z,42.93
2018-11-21T06:11:26.438Z,41.90
2018-11-21T06:14:14.181Z,42.40
2018-11-21T06:19:55.401Z,46.30
2018-11-21T06:22:43.743Z,45.37
2018-11-21T06:25:31.647Z,47.33
2018-11-21T06:28:19.376Z,43.63
2018-11-21T06:31:07.137Z,44.40
2018-11-21T06:33:54.879Z,44.37
2018-11-21T06:36:42.707Z,44.33
2018-11-21T06:39:30.738Z,44.20
2018-11-21T06:42:18.570Z,41.93
2018-11-21T06:45:07.305Z,42.23
2018-11-21T06:47:55.239Z,43.70
2018-11-21T06:50:43.329Z,45.33
2018-11-21T06:53:31.092Z,41.93
2018-11-21T06:56:18.898Z,46.13
2018-11-21T06:59:06.663Z,43.10
2018-11-21T07:01:54.478Z,43.00
2018-11-21T07:04:42.235Z,44.17
2018-11-21T07:07:29.966Z,44.00
2018-11-21T07:10:17.734Z,41.83
2018-11-21T07:13:11.011Z,41.53
2018-11-21T07:15:53.260Z,41.63
2018-11-21T07:18:41.310Z,41.47
2018-11-21T07:21:29.143Z,42.27
2018-11-21T07:24:16.870Z,43.10
2018-11-21T07:27:04.639Z,42.70
2018-11-21T07:29:52.648Z,42.20
2018-11-21T07:32:40.742Z,41.40
2018-11-21T07:38:36.310Z,38.90
2018-11-21T07:41:24.044Z,41.57
2018-11-21T07:44:11.863Z,38.47
2018-11-21T07:46:59.649Z,37.63
2018-11-21T07:52:41.071Z,38.27
2018-11-21T07:55:28.827Z,38.47
2018-11-21T07:58:18.585Z,39.47
2018-11-21T08:01:19.196Z,38.13
2018-11-21T08:04:10.624Z,38.83
2018-11-21T08:07:02.371Z,37.53
2018-11-21T08:10:09.233Z,39.83
2018-11-21T08:13:16.127Z,38.50
2018-11-21T08:16:22.975Z,37.97
2018-11-21T08:19:30.177Z,38.50
2018-11-21T08:22:37.018Z,37.37
2018-11-21T08:25:44.145Z,38.27
2018-11-21T08:28:32.002Z,38.00
2018-11-21T08:34:12.905Z,41.00
2018-11-21T08:37:00.682Z,40.90
2018-11-21T08:39:48.470Z,41.17
2018-11-21T08:51:17.771Z,36.93
2018-11-21T08:56:59.453Z,39.63
2018-11-21T09:02:40.683Z,38.53
2018-11-21T09:08:22.022Z,40.90
2018-11-21T09:14:02.931Z,38.60
2018-11-21T09:16:50.704Z,41.73
2018-11-21T09:19:38.436Z,37.23
2018-11-21T09:25:19.740Z,39.10
2018-11-21T09:31:00.918Z,36.00
2018-11-21T09:36:41.915Z,36.23
2018-11-21T09:42:24.019Z,38.20
2018-11-21T09:45:13.453Z,34.63
2018-11-21T09:53:49.628Z,37.97
2018-11-21T09:56:37.380Z,38.80
2018-11-21T10:02:38.537Z,37.77
2018-11-21T10:05:26.458Z,39.23
2018-11-21T10:08:52.665Z,37.20
2018-11-21T10:14:34.489Z,36.80
2018-11-21T10:20:15.197Z,38.10
2018-11-21T10:25:56.444Z,41.13
2018-11-21T10:31:39.438Z,42.10
2018-11-21T10:37:20.335Z,38.03
2018-11-21T10:40:08.360Z,40.07
2018-11-21T10:42:56.091Z,39.93
2018-11-21T10:45:43.914Z,36.67
2018-11-21T10:48:31.946Z,38.10
2018-11-21T10:51:19.795Z,40.87
2018-11-21T10:54:07.556Z,40.27
2018-11-21T10:59:48.554Z,35.33
2018-11-21T11:02:55.510Z,39.23
2018-11-21T11:06:02.353Z,38.07
2018-11-21T11:09:09.323Z,42.63
2018-11-21T11:12:16.179Z,38.30
2018-11-21T11:15:23.058Z,38.57
2018-11-21T11:18:19.611Z,36.00
2018-11-21T11:21:26.514Z,36.67
2018-11-21T11:24:33.354Z,36.17
2018-11-21T11:27:40.233Z,37.33
2018-11-21T11:30:47.116Z,41.07
2018-11-21T11:33:54.264Z,39.10
2018-11-21T11:37:01.121Z,40.47
2018-11-21T11:40:05.494Z,41.53
2018-11-21T11:43:12.348Z,40.23
2018-11-21T11:46:19.308Z,39.03
2018-11-21T11:49:26.158Z,43.23
2018-11-21T11:52:33.114Z,42.13
2018-11-21T11:55:39.971Z,43.03
2018-11-21T11:58:46.851Z,43.47
2018-11-21T12:01:53.813Z,40.80
2018-11-21T12:08:05.389Z,43.87
2018-11-21T12:11:04.658Z,39.97
2018-11-21T12:14:11.867Z,43.03
2018-11-21T12:17:18.738Z,41.13
2018-11-21T12:20:26.242Z,40.33
2018-11-21T12:23:33.095Z,42.37
2018-11-21T12:26:40.026Z,38.23
2018-11-21T12:29:46.878Z,40.50
2018-11-21T12:32:53.836Z,40.27
2018-11-21T12:36:00.691Z,42.77
2018-11-21T12:39:07.818Z,42.60
2018-11-21T12:42:07.385Z,40.50
2018-11-21T12:45:14.261Z,43.30
2018-11-21T12:48:21.178Z,45.07
2018-11-21T12:54:41.454Z,40.20
2018-11-21T12:57:48.408Z,40.77
2018-11-21T13:00:55.739Z,42.77
2018-11-21T13:06:58.599Z,41.80
2018-11-21T13:09:58.001Z,43.00
2018-11-21T13:12:58.015Z,46.23
2018-11-21T13:19:03.116Z,40.73
2018-11-21T13:22:03.022Z,38.37
